Terminal Aerodrome Forecast
Issued by NWS Sterling, VA

Current Version | Previous Version | Text Only | Print | Product List | Glossary Off
Versions: 1 2 3 4 5 6 7 8 9 10 11 12 13 14 15 16 17

000
FTUS41 KLWX 241502 AAA
TAFMRB
TAF AMD
KMRB 241502Z 2415/2512 11005KT P6SM SCT025 OVC050
     FM241900 13008KT P6SM BKN015 OVC035
     FM250000 12007KT 5SM -RA BKN008 OVC025
     FM250900 08007KT 3SM -RA BKN008 OVC025=

USA.gov is the U.S. government's official web portal to all federal, state and local government web resources and services.